createdAt,value
2018-10-11T00:00:08.480Z,100.00
2018-10-11T00:02:41.608Z,100.00
2018-10-11T00:05:14.011Z,100.00
2018-10-11T00:07:45.761Z,99.12
2018-10-11T00:10:17.818Z,98.02
2018-10-11T00:12:49.348Z,98.61
2018-10-11T00:15:20.570Z,97.48
2018-10-11T00:17:52.543Z,97.70
2018-10-11T00:20:23.204Z,97.57
2018-10-11T00:22:54.160Z,97.76
2018-10-11T00:25:24.816Z,97.66
2018-10-11T00:27:55.922Z,97.99
2018-10-11T00:30:26.991Z,97.99
2018-10-11T00:32:57.884Z,97.89
2018-10-11T00:35:28.690Z,97.95
2018-10-11T00:37:59.506Z,97.88
2018-10-11T00:40:30.477Z,98.67
2018-10-11T00:43:01.595Z,98.59
2018-10-11T00:45:32.377Z,98.88
2018-10-11T00:48:03.165Z,99.41
2018-10-11T00:50:34.151Z,99.70
2018-10-11T00:53:05.013Z,100.00
2018-10-11T00:55:42.141Z,99.89
2018-10-11T00:58:12.861Z,100.00
2018-10-11T01:00:43.879Z,100.00
2018-10-11T01:03:15.577Z,100.00
2018-10-11T01:05:46.482Z,100.00
2018-10-11T01:08:17.211Z,100.00
2018-10-11T01:10:48.032Z,100.00
2018-10-11T01:13:18.936Z,100.00
2018-10-11T01:15:49.518Z,100.00
2018-10-11T01:18:20.438Z,100.00
2018-10-11T01:20:51.024Z,100.00
2018-10-11T01:23:22.136Z,100.00
2018-10-11T01:25:52.954Z,100.00
2018-10-11T01:28:23.858Z,100.00
2018-10-11T01:30:59.341Z,100.00
2018-10-11T01:33:30.011Z,100.00
2018-10-11T01:36:00.806Z,100.00
2018-10-11T01:38:32.560Z,100.00
2018-10-11T01:41:03.470Z,100.00
2018-10-11T01:43:34.284Z,100.00
2018-10-11T01:46:05.059Z,100.00
2018-10-11T01:48:35.794Z,99.93
2018-10-11T01:51:06.720Z,100.00
2018-10-11T01:53:37.690Z,100.00
2018-10-11T01:56:09.055Z,100.00
2018-10-11T01:58:39.947Z,100.00
2018-10-11T02:01:10.967Z,100.00
2018-10-11T02:03:41.645Z,100.00
2018-10-11T02:06:15.054Z,100.00
2018-10-11T02:08:46.059Z,100.00
2018-10-11T02:11:16.960Z,100.00
2018-10-11T02:13:47.759Z,100.00
2018-10-11T02:16:18.624Z,100.00
2018-10-11T02:18:49.341Z,100.00
2018-10-11T02:21:20.048Z,100.00
2018-10-11T02:23:51.076Z,100.00
2018-10-11T02:26:22.133Z,100.00
2018-10-11T02:28:52.826Z,100.00
2018-10-11T02:31:23.701Z,100.00
2018-10-11T02:33:54.435Z,100.00
2018-10-11T02:36:25.345Z,100.00
2018-10-11T02:38:56.187Z,100.00
2018-10-11T02:41:27.815Z,100.00
2018-10-11T02:43:58.422Z,100.00
2018-10-11T02:46:29.270Z,100.00
2018-10-11T02:49:00.156Z,100.00
2018-10-11T02:51:30.881Z,100.00
2018-10-11T02:54:02.369Z,100.00
2018-10-11T02:56:33.592Z,100.00
2018-10-11T02:59:27.788Z,100.00
2018-10-11T03:01:58.746Z,100.00
2018-10-11T03:04:32.275Z,100.00
2018-10-11T03:07:03.180Z,100.00
2018-10-11T03:09:34.213Z,100.00
2018-10-11T03:12:05.019Z,100.00
2018-10-11T03:14:35.601Z,100.00
2018-10-11T03:17:06.446Z,100.00
2018-10-11T03:19:37.338Z,100.00
2018-10-11T03:22:08.271Z,100.00
2018-10-11T03:24:38.948Z,100.00
2018-10-11T03:27:09.646Z,100.00
2018-10-11T03:29:41.363Z,100.00
2018-10-11T03:32:12.136Z,100.00
2018-10-11T03:34:43.316Z,100.00
2018-10-11T03:37:14.703Z,100.00
2018-10-11T03:39:45.571Z,100.00
2018-10-11T03:42:16.536Z,100.00
2018-10-11T03:44:47.297Z,100.00
2018-10-11T03:47:18.015Z,100.00
2018-10-11T03:49:48.766Z,100.00
2018-10-11T03:52:19.565Z,100.00
2018-10-11T03:54:50.387Z,100.00
2018-10-11T03:57:21.289Z,100.00
2018-10-11T03:59:52.045Z,100.00
2018-10-11T04:02:22.981Z,100.00
2018-10-11T04:04:53.803Z,100.00
2018-10-11T04:07:24.781Z,100.00
2018-10-11T04:09:56.377Z,100.00
2018-10-11T04:12:27.196Z,100.00
2018-10-11T04:14:59.112Z,100.00
2018-10-11T04:17:30.075Z,100.00
2018-10-11T04:20:00.709Z,100.00
2018-10-11T04:22:31.526Z,100.00
2018-10-11T04:25:02.414Z,100.00
2018-10-11T04:27:33.472Z,100.00
2018-10-11T04:30:04.398Z,100.00
2018-10-11T04:32:35.370Z,100.00
2018-10-11T04:35:06.194Z,100.00
2018-10-11T04:37:43.602Z,100.00
2018-10-11T04:40:14.584Z,100.00
2018-10-11T04:42:45.336Z,100.00
2018-10-11T04:45:16.167Z,100.00
2018-10-11T04:47:47.074Z,100.00
2018-10-11T04:50:18.101Z,100.00
2018-10-11T04:52:49.056Z,100.00
2018-10-11T04:55:20.134Z,100.00
2018-10-11T04:57:50.967Z,100.00
2018-10-11T05:00:21.888Z,100.00
2018-10-11T05:02:52.797Z,100.00
2018-10-11T05:05:24.007Z,100.00
2018-10-11T05:08:01.247Z,100.00
2018-10-11T05:10:32.048Z,100.00
2018-10-11T05:13:02.920Z,100.00
2018-10-11T05:15:34.903Z,100.00
2018-10-11T05:18:06.793Z,100.00
2018-10-11T05:20:37.589Z,100.00
2018-10-11T05:23:08.639Z,100.00
2018-10-11T05:25:39.527Z,100.00
2018-10-11T05:28:10.581Z,100.00
2018-10-11T05:30:45.241Z,100.00
2018-10-11T05:33:17.080Z,100.00
2018-10-11T05:35:47.777Z,100.00
2018-10-11T05:38:18.556Z,100.00
2018-10-11T05:40:56.660Z,100.00
2018-10-11T05:43:27.671Z,100.00
2018-10-11T05:46:02.094Z,100.00
2018-10-11T05:48:34.544Z,100.00
2018-10-11T05:51:06.647Z,100.00
2018-10-11T05:53:37.614Z,100.00
2018-10-11T05:56:08.736Z,100.00
2018-10-11T05:58:40.468Z,100.00
2018-10-11T06:01:12.562Z,100.00
2018-10-11T06:03:45.960Z,100.00
2018-10-11T06:06:16.801Z,100.00
2018-10-11T06:08:48.439Z,100.00
2018-10-11T06:11:19.675Z,100.00
2018-10-11T06:13:51.841Z,100.00
2018-10-11T06:16:22.885Z,100.00
2018-10-11T06:18:53.891Z,100.00
2018-10-11T06:21:24.860Z,100.00
2018-10-11T06:23:56.364Z,100.00
2018-10-11T06:26:27.433Z,100.00
2018-10-11T06:28:58.560Z,100.00
2018-10-11T06:31:29.620Z,100.00
2018-10-11T06:34:00.470Z,100.00
2018-10-11T06:36:31.857Z,100.00
2018-10-11T06:39:03.717Z,100.00
2018-10-11T06:41:34.705Z,100.00
2018-10-11T06:44:05.739Z,99.69
2018-10-11T06:46:36.392Z,99.45
2018-10-11T06:49:07.717Z,98.30
2018-10-11T06:51:38.593Z,98.21
2018-10-11T06:54:09.571Z,98.03
2018-10-11T06:56:40.629Z,97.76
2018-10-11T06:59:11.798Z,96.67
2018-10-11T07:01:42.717Z,97.20
2018-10-11T07:04:14.302Z,96.63
2018-10-11T07:06:45.118Z,96.93
2018-10-11T07:09:16.584Z,96.73
2018-10-11T07:11:47.494Z,95.48
2018-10-11T07:14:18.120Z,94.03
2018-10-11T07:16:49.192Z,91.98
2018-10-11T07:19:20.465Z,91.37
2018-10-11T07:21:51.239Z,90.69
2018-10-11T07:24:22.573Z,90.14
2018-10-11T07:26:54.474Z,90.27
2018-10-11T07:29:25.467Z,90.29
2018-10-11T07:31:56.453Z,89.44
2018-10-11T07:34:27.342Z,90.05
2018-10-11T07:36:58.244Z,90.13
2018-10-11T07:39:29.121Z,89.60
2018-10-11T07:42:00.808Z,89.13
2018-10-11T07:44:32.465Z,89.59
2018-10-11T07:47:03.949Z,89.60
2018-10-11T07:49:34.965Z,88.29
2018-10-11T07:52:06.025Z,88.59
2018-10-11T07:54:36.787Z,88.24
2018-10-11T07:57:08.233Z,87.93
2018-10-11T07:59:38.826Z,87.90
2018-10-11T08:02:10.613Z,88.27
2018-10-11T08:04:41.501Z,87.54
2018-10-11T08:07:12.324Z,87.33
2018-10-11T08:09:43.106Z,87.43
2018-10-11T08:12:14.246Z,87.65
2018-10-11T08:14:45.524Z,88.21
2018-10-11T08:17:16.603Z,89.00
2018-10-11T08:19:47.361Z,90.78
2018-10-11T08:22:18.432Z,90.31
2018-10-11T08:24:50.724Z,91.26
2018-10-11T08:27:22.113Z,91.87
2018-10-11T08:29:53.100Z,92.49
2018-10-11T08:32:23.935Z,92.25
2018-10-11T08:34:54.967Z,93.18
2018-10-11T08:37:26.024Z,93.29
2018-10-11T09:37:37.116Z,92.70
2018-10-11T09:40:09.428Z,93.01
2018-10-11T09:42:41.918Z,92.45
2018-10-11T09:45:14.426Z,91.33
2018-10-11T09:47:46.659Z,91.25
2018-10-11T09:50:17.840Z,90.07
2018-10-11T09:52:49.093Z,90.12
2018-10-11T09:55:20.148Z,90.09
2018-10-11T09:57:51.520Z,90.45
2018-10-11T10:00:27.386Z,91.82
2018-10-11T10:02:58.301Z,92.14
2018-10-11T10:05:29.249Z,91.96
2018-10-11T10:08:00.174Z,92.00
2018-10-11T10:10:31.128Z,90.52
2018-10-11T10:13:02.152Z,89.59
2018-10-11T10:15:34.285Z,90.22
2018-10-11T10:18:08.077Z,90.26
2018-10-11T10:20:40.505Z,87.95
2018-10-11T10:23:11.554Z,86.33
2018-10-11T10:25:42.809Z,80.85
2018-10-11T10:28:14.043Z,77.63
2018-10-11T10:30:54.709Z,72.63
2018-10-11T10:33:26.509Z,70.88
2018-10-11T10:35:58.154Z,70.78
2018-10-11T10:38:29.010Z,70.56
2018-10-11T10:41:00.220Z,71.76
2018-10-11T10:43:30.921Z,72.29
2018-10-11T10:46:02.033Z,71.62
2018-10-11T10:48:33.010Z,72.56
2018-10-11T10:51:04.112Z,75.26
2018-10-11T10:53:36.022Z,75.37
2018-10-11T10:56:07.153Z,76.26
2018-10-11T10:58:38.949Z,76.66
2018-10-11T11:01:10.138Z,76.64
2018-10-11T11:03:41.126Z,78.24
2018-10-11T11:06:11.976Z,79.49
2018-10-11T11:08:43.046Z,79.23
2018-10-11T11:11:13.966Z,79.16
2018-10-11T11:13:45.276Z,77.61
2018-10-11T11:16:16.393Z,75.50
2018-10-11T11:18:47.369Z,75.30
2018-10-11T11:21:19.183Z,75.83
2018-10-11T11:23:50.742Z,74.07
2018-10-11T11:26:22.106Z,74.32
2018-10-11T11:28:54.519Z,73.85
2018-10-11T11:31:25.423Z,78.45
2018-10-11T11:33:56.061Z,77.54
2018-10-11T11:36:28.123Z,77.57
2018-10-11T11:38:59.051Z,78.96
2018-10-11T11:41:30.075Z,79.50
2018-10-11T11:44:00.980Z,80.32
2018-10-11T11:46:32.120Z,79.13
2018-10-11T11:49:02.957Z,79.99
2018-10-11T11:51:34.248Z,79.27
2018-10-11T11:54:09.207Z,81.31
2018-10-11T11:56:40.471Z,81.08
2018-10-11T11:59:11.559Z,80.70
2018-10-11T12:01:42.863Z,82.17
2018-10-11T12:04:13.596Z,83.99
2018-10-11T12:06:44.630Z,83.56
2018-10-11T12:09:16.398Z,83.98
2018-10-11T12:11:47.630Z,84.89
2018-10-11T12:14:18.507Z,87.25
2018-10-11T12:16:49.462Z,83.95
2018-10-11T12:19:21.000Z,81.60
2018-10-11T12:21:51.919Z,82.39
2018-10-11T12:24:23.088Z,84.56
2018-10-11T12:26:54.157Z,84.78
2018-10-11T12:29:25.679Z,84.75
2018-10-11T12:31:56.614Z,84.49
2018-10-11T12:34:27.769Z,85.44
2018-10-11T12:36:58.959Z,85.93
2018-10-11T12:39:30.062Z,87.58
2018-10-11T12:42:01.127Z,88.13
2018-10-11T12:44:32.497Z,86.11
2018-10-11T12:47:04.036Z,88.82
2018-10-11T12:49:39.228Z,87.85
2018-10-11T12:52:06.289Z,89.71
2018-10-11T12:54:38.156Z,88.72
2018-10-11T12:57:13.573Z,89.15
2018-10-11T12:59:39.756Z,89.31
2018-10-11T13:02:10.641Z,89.35
2018-10-11T13:04:41.691Z,89.32
2018-10-11T13:07:14.309Z,90.10
2018-10-11T13:09:45.405Z,90.73
2018-10-11T13:12:17.611Z,89.22
2018-10-11T13:14:48.786Z,89.94
2018-10-11T13:17:19.921Z,90.59
2018-10-11T13:19:51.151Z,91.34
2018-10-11T13:22:22.455Z,89.64
2018-10-11T13:24:53.333Z,89.49
2018-10-11T13:27:24.529Z,89.12
2018-10-11T13:29:55.792Z,87.62
2018-10-11T13:32:27.368Z,87.10
2018-10-11T13:34:58.416Z,86.25
2018-10-11T13:37:29.908Z,86.39
2018-10-11T13:40:01.188Z,85.66
2018-10-11T13:42:32.650Z,86.11
2018-10-11T13:45:03.584Z,85.97
2018-10-11T13:47:37.876Z,86.14
2018-10-11T13:50:06.522Z,86.26
2018-10-11T13:52:37.332Z,86.89
2018-10-11T13:55:12.147Z,88.54
2018-10-11T13:57:39.930Z,89.00
2018-10-11T14:00:11.274Z,89.47
2018-10-11T14:02:42.411Z,89.76
2018-10-11T14:05:13.403Z,89.39
2018-10-11T14:07:44.267Z,89.85
2018-10-11T14:10:15.302Z,90.30
2018-10-11T14:12:46.668Z,90.14
2018-10-11T14:15:17.845Z,89.54
2018-10-11T14:17:48.952Z,89.68
2018-10-11T14:20:21.467Z,90.18
2018-10-11T14:22:52.739Z,91.63
2018-10-11T14:25:23.999Z,92.09
2018-10-11T14:27:55.748Z,91.58
2018-10-11T14:30:26.726Z,92.06
2018-10-11T14:32:58.594Z,92.70
2018-10-11T14:35:30.076Z,92.18
2018-10-11T14:38:01.182Z,90.84
2018-10-11T14:40:32.380Z,92.07
2018-10-11T14:43:03.461Z,91.33
2018-10-11T14:45:34.596Z,90.75
2018-10-11T14:48:06.032Z,90.12
2018-10-11T14:50:37.439Z,88.81
2018-10-11T14:53:08.904Z,90.13
2018-10-11T14:55:39.950Z,85.93
2018-10-11T14:58:10.930Z,83.59
2018-10-11T15:00:42.178Z,81.56
2018-10-11T15:03:13.602Z,82.04
2018-10-11T15:05:44.869Z,82.47
2018-10-11T15:08:16.107Z,81.43
2018-10-11T15:10:47.059Z,84.36
2018-10-11T15:13:18.705Z,83.63
2018-10-11T15:15:52.866Z,83.29
2018-10-11T15:18:24.325Z,82.05
2018-10-11T15:20:55.793Z,82.09
2018-10-11T15:23:26.855Z,82.84
2018-10-11T15:25:57.661Z,83.67
2018-10-11T15:28:29.690Z,84.10
2018-10-11T15:31:00.715Z,83.60
2018-10-11T15:33:32.162Z,84.46
2018-10-11T15:36:03.622Z,85.32
2018-10-11T15:38:35.177Z,85.84
2018-10-11T15:41:06.933Z,84.92
2018-10-11T15:43:38.109Z,85.58
2018-10-11T15:46:09.431Z,85.53
2018-10-11T15:48:41.016Z,84.92
2018-10-11T15:51:11.955Z,85.76
2018-10-11T15:53:43.701Z,84.18
2018-10-11T15:56:15.224Z,84.60
2018-10-11T15:58:46.402Z,84.41
2018-10-11T16:01:18.266Z,85.00
2018-10-11T16:03:49.681Z,84.97
2018-10-11T16:06:21.631Z,85.69
2018-10-11T16:08:53.234Z,86.50
2018-10-11T16:11:24.595Z,87.00
2018-10-11T16:13:56.799Z,87.60
2018-10-11T16:16:28.266Z,88.82
2018-10-11T16:18:59.274Z,89.96
2018-10-11T16:21:30.813Z,91.50
2018-10-11T16:24:01.886Z,92.47
2018-10-11T16:26:33.098Z,94.17
2018-10-11T16:29:04.456Z,95.58
2018-10-11T16:31:35.711Z,96.33
2018-10-11T16:34:07.653Z,97.01
2018-10-11T16:36:39.659Z,96.61
2018-10-11T16:39:11.277Z,96.64
2018-10-11T16:41:42.429Z,97.34
2018-10-11T16:44:14.639Z,97.96
2018-10-11T16:46:46.175Z,98.51
2018-10-11T16:49:18.553Z,99.43
2018-10-11T16:51:49.873Z,98.59
2018-10-11T16:54:21.692Z,98.40
2018-10-11T16:56:54.591Z,98.14
2018-10-11T16:59:28.765Z,97.96
2018-10-11T17:02:00.497Z,97.86
2018-10-11T17:04:34.980Z,98.89
2018-10-11T17:07:07.878Z,98.38
2018-10-11T17:09:42.445Z,98.53
2018-10-11T17:12:15.618Z,99.13
2018-10-11T17:14:48.954Z,98.79
2018-10-11T17:17:21.634Z,99.23
2018-10-11T17:19:54.775Z,98.97
2018-10-11T17:22:27.654Z,98.54
2018-10-11T17:25:01.847Z,98.75
2018-10-11T17:27:35.474Z,99.33
2018-10-11T17:30:08.845Z,99.77
2018-10-11T17:32:41.463Z,99.58
2018-10-11T17:35:14.233Z,100.00
2018-10-11T17:37:46.410Z,100.00
2018-10-11T17:40:19.256Z,100.00
2018-10-11T17:42:52.479Z,99.38
2018-10-11T17:45:25.615Z,99.93
2018-10-11T17:47:59.256Z,100.00
2018-10-11T17:50:32.929Z,100.00
2018-10-11T17:53:06.274Z,100.00
2018-10-11T17:55:39.395Z,100.00
2018-10-11T17:58:12.086Z,99.64
2018-10-11T18:00:45.007Z,100.00
2018-10-11T18:03:18.239Z,100.00
2018-10-11T18:05:52.813Z,100.00
2018-10-11T18:08:26.518Z,100.00
2018-10-11T18:10:58.960Z,100.00
2018-10-11T18:13:31.232Z,100.00
2018-10-11T18:16:04.263Z,100.00
2018-10-11T18:18:36.911Z,100.00
2018-10-11T18:21:10.272Z,100.00
2018-10-11T18:23:43.023Z,100.00
2018-10-11T18:26:15.301Z,100.00
2018-10-11T18:28:47.690Z,100.00
2018-10-11T18:31:20.434Z,100.00
2018-10-11T18:33:52.359Z,100.00
2018-10-11T18:36:23.908Z,100.00
2018-10-11T18:38:56.113Z,100.00
2018-10-11T18:41:28.203Z,100.00
2018-10-11T18:44:01.903Z,100.00
2018-10-11T18:46:35.620Z,100.00
2018-10-11T18:49:09.449Z,100.00
2018-10-11T18:51:42.289Z,100.00
2018-10-11T18:54:15.019Z,100.00
2018-10-11T18:56:48.170Z,100.00
2018-10-11T18:59:20.688Z,100.00
2018-10-11T19:01:53.705Z,100.00
2018-10-11T19:04:26.901Z,100.00
2018-10-11T19:07:00.100Z,100.00
2018-10-11T19:09:32.830Z,100.00
2018-10-11T19:12:06.073Z,100.00
2018-10-11T19:14:38.796Z,100.00
2018-10-11T19:17:12.304Z,100.00
2018-10-11T19:19:45.315Z,100.00
2018-10-11T19:22:18.446Z,100.00
2018-10-11T19:24:51.906Z,100.00
2018-10-11T19:27:24.606Z,100.00
2018-10-11T19:29:57.526Z,100.00
2018-10-11T19:32:30.251Z,100.00
2018-10-11T19:35:02.810Z,100.00
2018-10-11T19:37:35.860Z,100.00
2018-10-11T19:40:08.506Z,100.00
2018-10-11T19:42:41.154Z,100.00
2018-10-11T19:45:13.603Z,100.00
2018-10-11T19:47:46.847Z,100.00
2018-10-11T19:50:19.887Z,100.00
2018-10-11T19:52:52.546Z,100.00
2018-10-11T19:55:25.737Z,100.00
2018-10-11T19:57:58.838Z,100.00
2018-10-11T20:00:32.309Z,100.00
2018-10-11T20:03:05.170Z,100.00
2018-10-11T20:05:37.692Z,100.00
2018-10-11T20:08:09.906Z,100.00
2018-10-11T20:10:42.474Z,100.00
2018-10-11T20:13:13.913Z,100.00
2018-10-11T20:15:45.568Z,100.00
2018-10-11T20:18:17.471Z,100.00
2018-10-11T20:20:49.058Z,100.00
2018-10-11T20:23:20.440Z,100.00
2018-10-11T20:25:52.057Z,100.00
2018-10-11T20:28:24.099Z,100.00
2018-10-11T20:30:56.118Z,100.00
2018-10-11T20:33:28.112Z,100.00
2018-10-11T20:36:00.018Z,100.00
2018-10-11T20:38:31.338Z,100.00
2018-10-11T20:41:02.663Z,100.00
2018-10-11T20:43:34.428Z,100.00
2018-10-11T20:46:05.447Z,100.00
2018-10-11T20:48:38.063Z,100.00
2018-10-11T20:51:09.492Z,100.00
2018-10-11T20:53:40.599Z,100.00
2018-10-11T20:56:11.737Z,100.00
2018-10-11T20:58:42.792Z,100.00
2018-10-11T21:01:13.719Z,100.00
2018-10-11T21:03:45.166Z,100.00
2018-10-11T21:06:16.542Z,100.00
2018-10-11T21:08:47.594Z,100.00
2018-10-11T21:11:19.305Z,100.00
2018-10-11T21:13:50.472Z,100.00
2018-10-11T21:16:21.578Z,100.00
2018-10-11T21:18:52.461Z,100.00
2018-10-11T21:21:23.405Z,100.00
2018-10-11T21:23:54.279Z,100.00
2018-10-11T21:26:25.450Z,100.00
2018-10-11T21:28:57.888Z,100.00
2018-10-11T21:31:28.915Z,100.00
2018-10-11T21:34:00.197Z,100.00
2018-10-11T21:36:31.392Z,100.00
2018-10-11T21:39:02.396Z,100.00
2018-10-11T21:41:33.118Z,100.00
2018-10-11T21:44:04.300Z,100.00
2018-10-11T21:46:36.306Z,100.00
2018-10-11T21:49:07.113Z,100.00
2018-10-11T21:51:37.952Z,100.00
2018-10-11T21:54:08.883Z,100.00
2018-10-11T21:56:39.560Z,100.00
2018-10-11T21:59:10.865Z,100.00
2018-10-11T22:01:42.093Z,100.00
2018-10-11T22:04:13.017Z,100.00
2018-10-11T22:06:44.505Z,100.00
2018-10-11T22:09:15.694Z,100.00
2018-10-11T22:11:46.452Z,100.00
2018-10-11T22:14:56.205Z,100.00
2018-10-11T22:17:27.106Z,100.00
2018-10-11T22:19:57.957Z,100.00
2018-10-11T22:22:29.218Z,100.00
2018-10-11T22:25:00.133Z,100.00
2018-10-11T22:27:30.966Z,100.00
2018-10-11T22:30:01.902Z,100.00
2018-10-11T22:32:32.801Z,100.00
2018-10-11T22:35:03.611Z,100.00
2018-10-11T22:37:34.666Z,100.00
2018-10-11T22:40:05.525Z,100.00
2018-10-11T22:42:36.229Z,100.00
2018-10-11T22:45:07.111Z,100.00
2018-10-11T22:47:37.948Z,100.00
2018-10-11T22:50:08.784Z,100.00
2018-10-11T22:52:39.712Z,100.00
2018-10-11T22:55:10.538Z,100.00
2018-10-11T22:57:41.359Z,100.00
2018-10-11T23:00:12.957Z,100.00
2018-10-11T23:03:34.315Z,100.00
2018-10-11T23:06:05.138Z,100.00
2018-10-11T23:08:36.066Z,100.00
2018-10-11T23:11:06.934Z,100.00
2018-10-11T23:13:37.966Z,100.00
2018-10-11T23:16:09.172Z,100.00
2018-10-11T23:18:40.636Z,100.00
2018-10-11T23:21:12.097Z,100.00
2018-10-11T23:23:43.877Z,100.00
2018-10-11T23:26:14.703Z,100.00
2018-10-11T23:28:45.468Z,100.00
2018-10-11T23:31:16.468Z,100.00
2018-10-11T23:33:47.520Z,100.00
2018-10-11T23:36:18.572Z,100.00
2018-10-11T23:38:49.371Z,100.00
2018-10-11T23:41:20.319Z,100.00
2018-10-11T23:43:51.063Z,100.00
2018-10-11T23:46:21.840Z,100.00
2018-10-11T23:48:52.509Z,100.00
2018-10-11T23:51:23.281Z,100.00
2018-10-11T23:53:54.152Z,100.00
2018-10-11T23:56:24.820Z,100.00
2018-10-11T23:58:55.593Z,100.00
